createdAt,value
2018-08-03T00:00:35.930Z,22.60
2018-08-03T00:01:35.910Z,22.57
2018-08-03T00:02:35.855Z,22.52
2018-08-03T00:03:35.820Z,22.43
2018-08-03T00:04:35.780Z,22.45
2018-08-03T00:05:35.752Z,22.39
2018-08-03T00:06:35.743Z,22.37
2018-08-03T00:07:35.684Z,22.47
2018-08-03T00:08:35.652Z,22.46
2018-08-03T00:09:35.604Z,22.52
2018-08-03T00:10:35.579Z,22.52
2018-08-03T00:11:35.571Z,22.46
2018-08-03T00:12:35.511Z,22.54
2018-08-03T00:13:35.495Z,22.46
2018-08-03T00:14:35.432Z,22.55
2018-08-03T00:15:35.425Z,22.57
2018-08-03T00:16:35.357Z,22.61
2018-08-03T00:17:35.351Z,22.65
2018-08-03T00:18:35.290Z,22.67
2018-08-03T00:19:35.261Z,22.61
2018-08-03T00:20:35.221Z,22.65
2018-08-03T00:21:35.184Z,22.62
2018-08-03T00:22:35.164Z,22.67
2018-08-03T00:23:35.108Z,22.65
2018-08-03T00:24:35.074Z,22.68
2018-08-03T00:25:35.044Z,22.67
2018-08-03T00:26:35.019Z,22.65
2018-08-03T00:27:34.989Z,22.64
2018-08-03T00:28:34.931Z,22.65
2018-08-03T00:29:34.900Z,22.60
2018-08-03T00:30:34.867Z,22.61
2018-08-03T00:31:34.832Z,22.52
2018-08-03T00:32:34.794Z,22.52
2018-08-03T00:33:34.774Z,22.42
2018-08-03T00:34:34.718Z,22.33
2018-08-03T00:35:34.685Z,22.37
2018-08-03T00:36:34.651Z,22.37
2018-08-03T00:37:34.617Z,22.36
2018-08-03T00:38:34.625Z,22.35
2018-08-03T00:39:34.550Z,22.37
2018-08-03T00:40:34.510Z,22.33
2018-08-03T00:41:34.474Z,22.37
2018-08-03T00:42:34.433Z,22.31
2018-08-03T00:43:34.428Z,22.36
2018-08-03T00:44:34.364Z,22.36
2018-08-03T00:45:34.341Z,22.22
2018-08-03T00:46:34.289Z,22.25
2018-08-03T00:47:34.322Z,22.22
2018-08-03T00:48:34.267Z,22.21
2018-08-03T00:49:34.199Z,22.18
2018-08-03T00:50:34.158Z,22.20
2018-08-03T00:51:34.118Z,22.20
2018-08-03T00:52:34.085Z,22.20
2018-08-03T00:53:34.038Z,22.22
2018-08-03T00:54:34.028Z,22.24
2018-08-03T00:55:33.968Z,22.20
2018-08-03T00:56:33.939Z,22.24
2018-08-03T00:57:33.905Z,22.12
2018-08-03T00:58:33.869Z,22.15
2018-08-03T00:59:33.850Z,22.09
2018-08-03T01:00:33.798Z,22.07
2018-08-03T01:01:33.766Z,22.02
2018-08-03T01:02:33.735Z,22.03
2018-08-03T01:03:33.693Z,22.06
2018-08-03T01:04:33.682Z,21.96
2018-08-03T01:05:33.615Z,22.02
2018-08-03T01:06:33.581Z,21.94
2018-08-03T01:07:33.558Z,21.92
2018-08-03T01:08:33.503Z,21.80
2018-08-03T01:09:33.519Z,21.88
2018-08-03T01:10:33.439Z,21.80
2018-08-03T01:11:33.402Z,21.71
2018-08-03T01:12:33.367Z,21.75
2018-08-03T01:13:33.326Z,21.62
2018-08-03T01:14:33.293Z,21.64
2018-08-03T01:15:33.287Z,21.58
2018-08-03T01:16:33.228Z,21.61
2018-08-03T01:17:33.186Z,21.54
2018-08-03T01:18:33.154Z,21.53
2018-08-03T01:19:33.107Z,21.53
2018-08-03T01:20:33.096Z,21.49
2018-08-03T01:21:33.051Z,21.47
2018-08-03T01:22:33.011Z,21.43
2018-08-03T01:23:32.979Z,21.50
2018-08-03T01:24:32.947Z,21.37
2018-08-03T01:25:32.922Z,21.42
2018-08-03T01:26:32.863Z,21.43
2018-08-03T01:27:32.842Z,21.34
2018-08-03T01:28:32.793Z,21.32
2018-08-03T01:29:32.858Z,21.34
2018-08-03T01:30:32.763Z,21.31
2018-08-03T01:31:32.736Z,21.21
2018-08-03T01:32:32.652Z,21.25
2018-08-03T01:33:32.614Z,21.19
2018-08-03T01:34:32.607Z,21.17
2018-08-03T01:35:32.551Z,21.19
2018-08-03T01:36:32.605Z,21.25
2018-08-03T01:37:32.471Z,21.17
2018-08-03T01:38:32.430Z,21.14
2018-08-03T01:39:32.392Z,21.16
2018-08-03T01:40:32.369Z,21.16
2018-08-03T01:41:32.350Z,21.14
2018-08-03T01:42:32.290Z,21.16
2018-08-03T01:43:32.256Z,21.19
2018-08-03T01:44:32.216Z,21.22
2018-08-03T01:45:32.202Z,21.22
2018-08-03T01:46:32.162Z,21.22
2018-08-03T01:47:32.128Z,21.24
2018-08-03T01:48:32.078Z,21.27
2018-08-03T01:49:32.034Z,21.25
2018-08-03T01:50:31.993Z,21.22
2018-08-03T01:51:31.987Z,21.19
2018-08-03T01:52:41.043Z,21.27
2018-08-03T01:53:31.898Z,21.17
2018-08-03T01:54:31.928Z,21.19
2018-08-03T01:55:31.815Z,21.13
2018-08-03T01:56:31.776Z,21.12
2018-08-03T01:57:31.779Z,21.13
2018-08-03T01:58:31.835Z,21.13
2018-08-03T01:59:31.713Z,21.07
2018-08-03T02:00:31.646Z,21.04
2018-08-03T02:01:31.598Z,21.04
2018-08-03T02:02:31.589Z,21.01
2018-08-03T02:03:31.531Z,21.01
2018-08-03T02:04:31.496Z,20.98
2018-08-03T02:05:31.457Z,21.03
2018-08-03T02:06:31.426Z,20.91
2018-08-03T02:07:31.411Z,20.97
2018-08-03T02:08:31.345Z,20.98
2018-08-03T02:09:31.311Z,20.94
2018-08-03T02:10:31.330Z,20.94
2018-08-03T02:11:31.251Z,20.89
2018-08-03T02:12:31.231Z,20.97
2018-08-03T02:13:31.236Z,20.91
2018-08-03T02:14:31.218Z,20.85
2018-08-03T02:15:31.109Z,20.85
2018-08-03T02:16:31.057Z,20.85
2018-08-03T02:17:31.067Z,20.80
2018-08-03T02:18:30.996Z,20.77
2018-08-03T02:19:30.955Z,20.72
2018-08-03T02:20:30.913Z,20.74
2018-08-03T02:21:30.880Z,20.69
2018-08-03T02:22:30.899Z,20.74
2018-08-03T02:23:30.840Z,20.61
2018-08-03T02:24:30.777Z,20.62
2018-08-03T02:25:30.735Z,20.67
2018-08-03T02:26:30.699Z,20.69
2018-08-03T02:27:30.678Z,20.55
2018-08-03T02:28:30.650Z,20.51
2018-08-03T02:29:30.590Z,20.59
2018-08-03T02:30:30.553Z,20.51
2018-08-03T02:31:30.593Z,20.50
2018-08-03T02:32:30.531Z,20.50
2018-08-03T02:33:30.516Z,20.59
2018-08-03T02:34:30.403Z,20.39
2018-08-03T02:35:30.436Z,20.54
2018-08-03T02:36:30.346Z,20.50
2018-08-03T02:37:30.308Z,20.43
2018-08-03T02:38:30.294Z,20.39
2018-08-03T02:39:30.224Z,20.42
2018-08-03T02:40:30.209Z,20.42
2018-08-03T02:41:30.151Z,20.31
2018-08-03T02:42:30.118Z,20.33
2018-08-03T02:43:30.174Z,20.26
2018-08-03T02:44:30.073Z,20.26
2018-08-03T02:45:30.010Z,20.29
2018-08-03T02:46:29.972Z,20.32
2018-08-03T02:47:30.039Z,20.31
2018-08-03T02:48:29.905Z,20.28
2018-08-03T02:49:29.892Z,20.32
2018-08-03T02:50:29.828Z,20.28
2018-08-03T02:51:29.788Z,20.32
2018-08-03T02:52:29.747Z,20.28
2018-08-03T02:53:29.708Z,20.28
2018-08-03T02:54:29.694Z,20.26
2018-08-03T02:55:29.649Z,20.29
2018-08-03T02:56:29.712Z,20.32
2018-08-03T02:57:29.609Z,20.31
2018-08-03T02:58:29.545Z,20.31
2018-08-03T02:59:29.514Z,20.24
2018-08-03T03:00:29.458Z,20.28
2018-08-03T03:01:29.423Z,20.13
2018-08-03T03:02:29.382Z,20.17
2018-08-03T03:03:29.358Z,20.13
2018-08-03T03:04:29.340Z,20.05
2018-08-03T03:05:29.276Z,20.03
2018-08-03T03:06:29.237Z,20.03
2018-08-03T03:07:29.280Z,20.08
2018-08-03T03:08:29.173Z,20.01
2018-08-03T03:09:29.174Z,20.06
2018-08-03T03:10:29.098Z,20.03
2018-08-03T03:11:29.056Z,20.05
2018-08-03T03:12:29.016Z,19.99
2018-08-03T03:13:28.989Z,20.08
2018-08-03T03:14:28.976Z,20.01
2018-08-03T03:15:28.919Z,20.02
2018-08-03T03:16:28.886Z,20.06
2018-08-03T03:17:28.850Z,20.02
2018-08-03T03:18:28.865Z,20.03
2018-08-03T03:19:28.810Z,20.03
2018-08-03T03:20:28.749Z,19.95
2018-08-03T03:21:28.697Z,19.95
2018-08-03T03:22:28.662Z,20.01
2018-08-03T03:23:28.642Z,19.99
2018-08-03T03:24:28.607Z,19.99
2018-08-03T03:25:28.546Z,19.92
2018-08-03T03:26:28.505Z,19.88
2018-08-03T03:27:28.545Z,19.91
2018-08-03T03:28:28.448Z,19.94
2018-08-03T03:29:28.430Z,19.96
2018-08-03T03:30:28.367Z,19.83
2018-08-03T03:31:28.390Z,19.84
2018-08-03T03:32:28.352Z,19.86
2018-08-03T03:33:28.262Z,19.88
2018-08-03T03:34:28.304Z,19.87
2018-08-03T03:35:28.191Z,19.84
2018-08-03T03:36:28.154Z,19.87
2018-08-03T03:37:28.166Z,19.92
2018-08-03T03:38:28.066Z,20.01
2018-08-03T03:39:28.063Z,19.99
2018-08-03T03:40:28.005Z,19.96
2018-08-03T03:41:28.007Z,19.99
2018-08-03T03:42:27.933Z,19.96
2018-08-03T03:43:27.886Z,19.98
2018-08-03T03:44:27.870Z,19.91
2018-08-03T03:45:27.874Z,19.98
2018-08-03T03:46:27.773Z,19.88
2018-08-03T03:47:27.801Z,19.94
2018-08-03T03:48:27.709Z,19.94
2018-08-03T03:49:27.696Z,19.87
2018-08-03T03:50:27.634Z,19.92
2018-08-03T03:51:27.594Z,19.91
2018-08-03T03:52:27.598Z,19.86
2018-08-03T03:53:27.563Z,19.95
2018-08-03T03:54:27.518Z,19.94
2018-08-03T03:55:27.448Z,19.95
2018-08-03T03:56:27.410Z,20.02
2018-08-03T03:57:27.489Z,19.95
2018-08-03T03:58:27.361Z,19.91
2018-08-03T03:59:27.355Z,20.01
2018-08-03T04:00:27.274Z,20.03
2018-08-03T04:01:27.250Z,20.02
2018-08-03T04:02:27.193Z,19.98
2018-08-03T04:03:27.177Z,19.94
2018-08-03T04:04:27.118Z,19.94
2018-08-03T04:05:27.081Z,19.92
2018-08-03T04:06:27.042Z,19.94
2018-08-03T04:07:27.015Z,19.99
2018-08-03T04:08:27.007Z,19.99
2018-08-03T04:09:26.945Z,20.01
2018-08-03T04:10:26.905Z,19.98
2018-08-03T04:11:26.866Z,20.02
2018-08-03T04:12:26.915Z,20.01
2018-08-03T04:13:26.881Z,20.03
2018-08-03T04:14:26.770Z,20.02
2018-08-03T04:15:26.715Z,20.01
2018-08-03T04:16:26.695Z,20.02
2018-08-03T04:17:26.663Z,20.03
2018-08-03T04:18:26.630Z,19.99
2018-08-03T04:19:26.577Z,20.02
2018-08-03T04:20:26.533Z,20.03
2018-08-03T04:21:26.500Z,20.16
2018-08-03T04:22:26.471Z,20.16
2018-08-03T04:23:26.440Z,20.10
2018-08-03T04:24:26.384Z,20.20
2018-08-03T04:25:26.386Z,20.28
2018-08-03T04:26:26.318Z,20.26
2018-08-03T04:27:26.285Z,20.26
2018-08-03T04:28:26.256Z,20.26
2018-08-03T04:29:26.203Z,20.24
2018-08-03T04:30:26.163Z,20.26
2018-08-03T04:31:26.138Z,20.24
2018-08-03T04:32:26.100Z,20.31
2018-08-03T04:33:26.092Z,20.28
2018-08-03T04:34:26.023Z,20.29
2018-08-03T04:35:25.983Z,20.32
2018-08-03T04:36:25.945Z,20.31
2018-08-03T04:37:25.920Z,20.36
2018-08-03T04:38:25.919Z,20.48
2018-08-03T04:39:25.854Z,20.47
2018-08-03T04:40:25.804Z,20.43
2018-08-03T04:41:25.774Z,20.43
2018-08-03T04:42:25.779Z,20.57
2018-08-03T04:43:25.719Z,20.58
2018-08-03T04:44:25.658Z,20.61
2018-08-03T04:45:25.623Z,20.67
2018-08-03T04:46:25.586Z,20.59
2018-08-03T04:47:25.611Z,20.70
2018-08-03T04:48:25.529Z,20.74
2018-08-03T04:49:25.471Z,20.70
2018-08-03T04:50:25.435Z,20.76
2018-08-03T04:51:25.403Z,20.74
2018-08-03T04:52:25.368Z,20.73
2018-08-03T04:53:25.370Z,20.76
2018-08-03T04:54:25.297Z,20.82
2018-08-03T04:55:25.251Z,20.80
2018-08-03T04:56:25.215Z,20.84
2018-08-03T04:57:25.237Z,20.89
2018-08-03T04:58:25.148Z,20.97
2018-08-03T04:59:25.107Z,20.89
2018-08-03T05:00:25.072Z,20.94
2018-08-03T05:01:25.030Z,20.99
2018-08-03T05:02:25.022Z,20.98
2018-08-03T05:03:24.966Z,21.07
2018-08-03T05:04:24.937Z,21.61
2018-08-03T05:05:24.895Z,22.31
2018-08-03T05:06:24.862Z,23.04
2018-08-03T05:07:24.853Z,23.63
2018-08-03T05:08:24.781Z,24.08
2018-08-03T05:09:24.743Z,24.50
2018-08-03T05:10:24.767Z,24.98
2018-08-03T05:11:24.707Z,25.33
2018-08-03T05:12:24.666Z,25.64
2018-08-03T05:13:24.599Z,25.83
2018-08-03T05:14:24.569Z,26.06
2018-08-03T05:15:24.649Z,26.45
2018-08-03T05:16:24.502Z,26.66
2018-08-03T05:17:24.498Z,26.81
2018-08-03T05:18:24.468Z,26.81
2018-08-03T05:19:24.392Z,27.02
2018-08-03T05:20:24.377Z,27.19
2018-08-03T05:21:24.325Z,27.17
2018-08-03T05:22:24.363Z,27.24
2018-08-03T05:23:24.257Z,27.49
2018-08-03T05:24:24.221Z,27.60
2018-08-03T05:25:24.185Z,27.66
2018-08-03T05:26:24.153Z,27.70
2018-08-03T05:27:24.157Z,27.74
2018-08-03T05:28:24.075Z,27.74
2018-08-03T05:29:24.048Z,27.74
2018-08-03T05:30:24.076Z,27.97
2018-08-03T05:31:23.972Z,28.22
2018-08-03T05:32:23.964Z,28.48
2018-08-03T05:33:23.905Z,28.51
2018-08-03T05:34:23.874Z,28.62
2018-08-03T05:35:23.864Z,28.64
2018-08-03T05:36:23.889Z,28.81
2018-08-03T05:37:23.812Z,28.85
2018-08-03T05:38:23.749Z,28.85
2018-08-03T05:39:23.750Z,28.80
2018-08-03T05:40:23.671Z,28.88
2018-08-03T05:41:23.643Z,28.90
2018-08-03T05:42:23.666Z,29.02
2018-08-03T05:43:23.580Z,29.21
2018-08-03T05:44:23.548Z,29.43
2018-08-03T05:45:23.542Z,29.67
2018-08-03T05:46:23.536Z,29.83
2018-08-03T05:47:23.454Z,29.80
2018-08-03T05:48:23.414Z,29.89
2018-08-03T05:49:23.381Z,30.07
2018-08-03T05:50:23.447Z,30.20
2018-08-03T05:51:23.385Z,30.26
2018-08-03T05:52:23.300Z,30.37
2018-08-03T05:53:23.247Z,30.39
2018-08-03T05:54:23.210Z,30.37
2018-08-03T05:55:23.189Z,30.46
2018-08-03T05:56:23.179Z,30.47
2018-08-03T05:57:23.131Z,30.37
2018-08-03T05:58:33.149Z,30.46
2018-08-03T05:59:23.060Z,30.43
2018-08-03T06:00:23.024Z,30.47
2018-08-03T06:01:23.010Z,30.61
2018-08-03T06:02:22.954Z,30.89
2018-08-03T06:03:22.921Z,30.91
2018-08-03T06:04:22.888Z,30.98
2018-08-03T06:05:22.862Z,30.95
2018-08-03T06:06:22.854Z,30.98
2018-08-03T06:07:22.798Z,30.89
2018-08-03T06:08:22.764Z,31.07
2018-08-03T06:09:22.729Z,31.25
2018-08-03T06:10:22.695Z,31.48
2018-08-03T06:11:22.693Z,31.63
2018-08-03T06:12:22.630Z,31.63
2018-08-03T06:13:22.606Z,31.85
2018-08-03T06:14:22.575Z,31.99
2018-08-03T06:15:22.536Z,31.70
2018-08-03T06:16:22.525Z,31.73
2018-08-03T06:17:22.482Z,32.04
2018-08-03T06:18:33.704Z,32.26
2018-08-03T06:19:22.413Z,32.37
2018-08-03T06:20:22.381Z,32.52
2018-08-03T06:21:22.368Z,32.47
2018-08-03T06:22:22.329Z,32.44
2018-08-03T06:23:22.290Z,32.40
2018-08-03T06:24:22.267Z,32.29
2018-08-03T06:25:22.226Z,32.60
2018-08-03T06:26:22.218Z,32.66
2018-08-03T06:27:22.160Z,32.43
2018-08-03T06:28:22.147Z,32.33
2018-08-03T06:29:22.102Z,32.43
2018-08-03T06:30:22.075Z,32.45
2018-08-03T06:31:22.054Z,32.74
2018-08-03T06:32:22.002Z,32.84
2018-08-03T06:33:21.969Z,33.47
2018-08-03T06:34:21.942Z,33.35
2018-08-03T06:35:21.940Z,33.56
2018-08-03T06:36:33.240Z,33.57
2018-08-03T06:37:21.885Z,33.32
2018-08-03T06:38:21.888Z,32.87
2018-08-03T06:39:21.788Z,32.94
2018-08-03T06:40:21.782Z,33.28
2018-08-03T06:41:21.735Z,33.50
2018-08-03T06:42:21.701Z,33.47
2018-08-03T06:43:21.664Z,33.47
2018-08-03T06:44:21.638Z,33.73
2018-08-03T06:45:21.629Z,33.79
2018-08-03T06:46:21.583Z,34.03
2018-08-03T06:47:21.554Z,33.98
2018-08-03T06:48:21.570Z,33.98
2018-08-03T06:49:21.483Z,34.15
2018-08-03T06:50:21.474Z,34.70
2018-08-03T06:51:21.424Z,34.80
2018-08-03T06:52:21.394Z,34.22
2018-08-03T06:53:21.368Z,34.16
2018-08-03T06:54:21.340Z,34.27
2018-08-03T06:55:21.335Z,34.35
2018-08-03T06:56:31.780Z,34.54
2018-08-03T06:57:21.260Z,34.73
2018-08-03T06:58:21.222Z,34.54
2018-08-03T06:59:21.198Z,34.44
2018-08-03T07:00:21.179Z,34.50
2018-08-03T07:01:21.125Z,34.61
2018-08-03T07:02:21.094Z,34.70
2018-08-03T07:03:21.071Z,35.00
2018-08-03T07:04:21.060Z,35.10
2018-08-03T07:05:21.033Z,35.19
2018-08-03T07:06:20.984Z,35.19
2018-08-03T07:07:20.948Z,35.15
2018-08-03T07:08:20.922Z,35.36
2018-08-03T07:09:20.893Z,35.19
2018-08-03T07:10:20.882Z,35.36
2018-08-03T07:11:20.836Z,35.40
2018-08-03T07:12:20.811Z,35.44
2018-08-03T07:13:20.775Z,35.70
2018-08-03T07:14:20.747Z,35.71
2018-08-03T07:15:20.753Z,35.60
2018-08-03T07:16:20.695Z,35.71
2018-08-03T07:17:20.667Z,35.68
2018-08-03T07:18:20.638Z,35.81
2018-08-03T07:19:20.602Z,36.15
2018-08-03T07:20:20.832Z,35.92
2018-08-03T07:21:20.545Z,35.22
2018-08-03T07:22:20.516Z,35.25
2018-08-03T07:23:20.498Z,35.48
2018-08-03T07:24:20.488Z,35.72
2018-08-03T07:25:20.438Z,35.97
2018-08-03T07:26:20.410Z,36.03
2018-08-03T07:27:20.381Z,35.81
2018-08-03T07:28:20.346Z,36.07
2018-08-03T07:29:20.351Z,36.57
2018-08-03T07:30:20.303Z,36.32
2018-08-03T07:31:20.267Z,36.07
2018-08-03T07:32:20.242Z,35.82
2018-08-03T07:33:20.210Z,35.97
2018-08-03T07:34:20.201Z,36.05
2018-08-03T07:35:20.162Z,35.75
2018-08-03T07:36:20.133Z,35.50
2018-08-03T07:37:20.107Z,35.58
2018-08-03T07:38:20.094Z,35.28
2018-08-03T07:39:20.077Z,35.21
2018-08-03T07:40:20.015Z,35.06
2018-08-03T07:41:19.989Z,35.66
2018-08-03T07:42:19.961Z,36.07
2018-08-03T07:43:20.021Z,35.96
2018-08-03T07:44:19.960Z,35.45
2018-08-03T07:45:19.877Z,35.02
2018-08-03T07:46:19.852Z,34.73
2018-08-03T07:47:19.834Z,34.88
2018-08-03T07:48:19.803Z,35.07
2018-08-03T07:49:19.801Z,35.68
2018-08-03T07:50:19.747Z,35.55
2018-08-03T07:51:19.714Z,35.03
2018-08-03T07:52:19.686Z,35.34
2018-08-03T07:53:19.659Z,35.28
2018-08-03T07:54:29.354Z,35.34
2018-08-03T07:55:19.612Z,35.60
2018-08-03T07:56:19.584Z,35.71
2018-08-03T07:57:19.549Z,35.48
2018-08-03T07:58:19.523Z,35.40
2018-08-03T07:59:19.525Z,35.41
2018-08-03T08:00:19.476Z,35.15
2018-08-03T08:01:19.441Z,35.41
2018-08-03T08:02:19.418Z,35.71
2018-08-03T08:03:19.474Z,35.25
2018-08-03T08:04:19.388Z,35.00
2018-08-03T08:05:19.343Z,34.50
2018-08-03T08:06:19.333Z,34.28
2018-08-03T08:07:19.290Z,34.43
2018-08-03T08:08:19.264Z,34.89
2018-08-03T08:09:19.250Z,35.04
2018-08-03T08:10:19.206Z,34.81
2018-08-03T08:11:19.177Z,34.80
2018-08-03T08:12:19.150Z,35.22
2018-08-03T08:13:19.129Z,35.21
2018-08-03T08:14:19.129Z,35.74
2018-08-03T08:15:19.118Z,36.12
2018-08-03T08:16:19.045Z,36.23
2018-08-03T08:17:19.029Z,36.16
2018-08-03T08:18:19.028Z,36.23
2018-08-03T08:19:18.978Z,36.13
2018-08-03T08:20:18.963Z,36.31
2018-08-03T08:21:18.924Z,36.32
2018-08-03T08:22:18.892Z,36.39
2018-08-03T08:23:18.894Z,35.93
2018-08-03T08:24:18.843Z,35.58
2018-08-03T08:25:18.827Z,35.60
2018-08-03T08:26:18.802Z,34.94
2018-08-03T08:27:18.780Z,35.00
2018-08-03T08:28:18.775Z,35.23
2018-08-03T08:29:18.718Z,35.22
2018-08-03T08:30:18.697Z,34.96
2018-08-03T08:31:18.682Z,34.81
2018-08-03T08:32:18.664Z,34.91
2018-08-03T08:33:18.642Z,34.84
2018-08-03T08:34:18.597Z,34.88
2018-08-03T08:35:18.575Z,35.00
2018-08-03T08:36:18.544Z,35.23
2018-08-03T08:37:18.530Z,35.09
2018-08-03T08:38:18.533Z,35.15
2018-08-03T08:39:18.479Z,35.25
2018-08-03T08:40:18.456Z,35.34
2018-08-03T08:41:18.425Z,35.09
2018-08-03T08:42:18.398Z,34.99
2018-08-03T08:43:18.395Z,34.97
2018-08-03T08:44:18.359Z,35.41
2018-08-03T08:45:18.412Z,35.59
2018-08-03T08:46:18.311Z,35.75
2018-08-03T08:47:18.340Z,35.68
2018-08-03T08:48:18.277Z,35.55
2018-08-03T08:49:18.267Z,35.65
2018-08-03T08:50:18.212Z,35.94
2018-08-03T08:51:18.215Z,35.72
2018-08-03T08:52:18.165Z,35.77
2018-08-03T08:53:18.180Z,35.58
2018-08-03T08:54:28.390Z,35.43
2018-08-03T08:55:18.092Z,35.40
2018-08-03T08:56:18.067Z,35.09
2018-08-03T08:57:18.043Z,35.23
2018-08-03T08:58:18.048Z,35.66
2018-08-03T08:59:17.989Z,36.05
2018-08-03T09:00:17.963Z,35.70
2018-08-03T09:01:17.979Z,35.78
2018-08-03T09:02:17.930Z,35.71
2018-08-03T09:03:17.915Z,35.55
2018-08-03T09:04:17.875Z,35.75
2018-08-03T09:05:17.855Z,35.71
2018-08-03T09:06:17.824Z,35.72
2018-08-03T09:07:17.834Z,35.04
2018-08-03T09:08:17.784Z,35.22
2018-08-03T09:09:17.761Z,35.43
2018-08-03T09:10:17.735Z,35.26
2018-08-03T09:11:17.711Z,35.68
2018-08-03T09:12:17.709Z,35.96
2018-08-03T09:13:17.775Z,36.38
2018-08-03T09:14:17.645Z,36.05
2018-08-03T09:15:17.624Z,36.12
2018-08-03T09:16:17.600Z,35.87
2018-08-03T09:17:17.573Z,36.05
2018-08-03T09:18:17.597Z,36.50
2018-08-03T09:19:17.536Z,36.83
2018-08-03T09:20:17.511Z,37.34
2018-08-03T09:21:17.490Z,37.57
2018-08-03T09:22:17.468Z,37.46
2018-08-03T09:23:17.467Z,37.34
2018-08-03T09:24:17.417Z,37.22
2018-08-03T09:25:17.394Z,36.54
2018-08-03T09:26:17.372Z,36.28
2018-08-03T09:27:17.382Z,36.25
2018-08-03T09:28:17.371Z,36.01
2018-08-03T09:29:17.313Z,35.68
2018-08-03T09:30:17.290Z,35.77
2018-08-03T09:31:17.263Z,35.94
2018-08-03T09:32:17.240Z,35.44
2018-08-03T09:33:17.242Z,35.66
2018-08-03T09:34:17.203Z,35.71
2018-08-03T09:35:17.173Z,35.63
2018-08-03T09:36:17.161Z,35.78
2018-08-03T09:37:17.129Z,35.85
2018-08-03T09:38:17.142Z,36.01
2018-08-03T09:39:17.099Z,36.03
2018-08-03T09:40:17.072Z,36.20
2018-08-03T09:41:17.049Z,36.22
2018-08-03T09:42:17.029Z,36.16
2018-08-03T09:43:17.021Z,36.37
2018-08-03T09:44:16.975Z,36.07
2018-08-03T09:45:16.960Z,36.15
2018-08-03T09:46:16.935Z,36.29
2018-08-03T09:47:16.918Z,36.56
2018-08-03T09:48:16.921Z,36.78
2018-08-03T09:49:16.891Z,36.72
2018-08-03T09:50:16.850Z,36.93
2018-08-03T09:51:16.836Z,37.22
2018-08-03T09:52:16.815Z,37.37
2018-08-03T09:53:16.790Z,37.07
2018-08-03T09:54:16.793Z,36.85
2018-08-03T09:55:16.808Z,36.75
2018-08-03T09:56:16.720Z,36.78
2018-08-03T09:57:16.703Z,36.93
2018-08-03T09:58:16.682Z,37.25
2018-08-03T09:59:16.691Z,37.67
2018-08-03T10:00:16.648Z,37.75
2018-08-03T10:01:16.629Z,37.07
2018-08-03T10:02:16.609Z,37.10
2018-08-03T10:03:16.578Z,37.24
2018-08-03T10:04:16.584Z,37.47
2018-08-03T10:05:16.547Z,37.64
2018-08-03T10:06:16.533Z,36.95
2018-08-03T10:07:16.514Z,36.41
2018-08-03T10:08:16.477Z,36.73
2018-08-03T10:09:16.457Z,36.75
2018-08-03T10:10:16.459Z,36.95
2018-08-03T10:11:16.427Z,36.75
2018-08-03T10:12:16.404Z,36.81
2018-08-03T10:13:16.384Z,36.71
2018-08-03T10:14:16.367Z,36.09
2018-08-03T10:15:16.359Z,35.72
2018-08-03T10:16:16.318Z,35.96
2018-08-03T10:17:16.302Z,36.37
2018-08-03T10:18:16.277Z,36.44
2018-08-03T10:19:16.263Z,36.56
2018-08-03T10:20:16.261Z,36.81
2018-08-03T10:21:16.217Z,36.85
2018-08-03T10:22:16.202Z,37.02
2018-08-03T10:23:16.184Z,37.28
2018-08-03T10:24:16.163Z,37.49
2018-08-03T10:25:16.171Z,37.37
2018-08-03T10:26:16.126Z,37.22
2018-08-03T10:27:16.096Z,37.29
2018-08-03T10:28:16.077Z,36.85
2018-08-03T10:29:16.056Z,36.68
2018-08-03T10:30:16.045Z,36.59
2018-08-03T10:31:16.049Z,36.76
2018-08-03T10:32:16.003Z,36.50
2018-08-03T10:33:15.987Z,36.54
2018-08-03T10:34:15.973Z,36.68
2018-08-03T10:35:15.945Z,36.28
2018-08-03T10:36:15.937Z,35.90
2018-08-03T10:37:15.909Z,35.71
2018-08-03T10:38:15.889Z,35.52
2018-08-03T10:39:15.860Z,35.37
2018-08-03T10:40:15.839Z,35.33
2018-08-03T10:41:15.860Z,35.19
2018-08-03T10:42:15.797Z,35.25
2018-08-03T10:43:15.850Z,35.07
2018-08-03T10:44:15.764Z,35.52
2018-08-03T10:45:15.740Z,35.77
2018-08-03T10:46:15.723Z,35.68
2018-08-03T10:47:15.736Z,35.38
2018-08-03T10:48:15.673Z,35.53
2018-08-03T10:49:15.657Z,35.36
2018-08-03T10:50:15.632Z,35.52
2018-08-03T10:51:15.665Z,35.71
2018-08-03T10:52:15.618Z,35.97
2018-08-03T10:53:15.567Z,36.28
2018-08-03T10:54:15.552Z,36.57
2018-08-03T10:55:15.532Z,36.56
2018-08-03T10:56:15.511Z,36.73
2018-08-03T10:57:15.515Z,36.76
2018-08-03T10:58:15.488Z,36.53
2018-08-03T10:59:15.448Z,36.66
2018-08-03T11:00:15.423Z,36.25
2018-08-03T11:01:15.454Z,36.28
2018-08-03T11:02:15.408Z,36.05
2018-08-03T11:03:15.366Z,36.22
2018-08-03T11:04:15.357Z,36.34
2018-08-03T11:05:15.326Z,36.13
2018-08-03T11:06:15.309Z,36.22
2018-08-03T11:07:15.281Z,36.41
2018-08-03T11:08:15.285Z,36.19
2018-08-03T11:09:15.248Z,36.34
2018-08-03T11:10:15.228Z,36.39
2018-08-03T11:11:15.202Z,36.43
2018-08-03T11:12:15.181Z,36.53
2018-08-03T11:13:15.182Z,36.29
2018-08-03T11:14:15.140Z,36.32
2018-08-03T11:15:15.130Z,36.27
2018-08-03T11:16:15.131Z,36.56
2018-08-03T11:17:15.088Z,36.73
2018-08-03T11:18:15.096Z,36.41
2018-08-03T11:19:15.051Z,36.38
2018-08-03T11:20:15.029Z,36.37
2018-08-03T11:21:15.006Z,36.43
2018-08-03T11:22:14.984Z,36.43
2018-08-03T11:23:14.973Z,36.46
2018-08-03T11:24:15.019Z,36.44
2018-08-03T11:25:14.927Z,36.47
2018-08-03T11:26:14.908Z,36.49
2018-08-03T11:27:14.899Z,36.71
2018-08-03T11:28:14.879Z,36.85
2018-08-03T11:29:14.879Z,37.05
2018-08-03T11:30:14.842Z,36.88
2018-08-03T11:31:14.823Z,36.85
2018-08-03T11:32:14.795Z,36.83
2018-08-03T11:33:14.784Z,36.90
2018-08-03T11:34:14.782Z,36.98
2018-08-03T11:35:14.804Z,37.10
2018-08-03T11:36:14.736Z,37.34
2018-08-03T11:37:14.710Z,37.28
2018-08-03T11:38:14.695Z,36.91
2018-08-03T11:39:14.670Z,36.54
2018-08-03T11:40:14.668Z,36.39
2018-08-03T11:41:14.635Z,36.54
2018-08-03T11:42:14.619Z,36.51
2018-08-03T11:43:14.594Z,36.60
2018-08-03T11:44:14.599Z,36.84
2018-08-03T11:45:14.557Z,36.90
2018-08-03T11:46:14.554Z,36.87
2018-08-03T11:47:14.530Z,36.87
2018-08-03T11:48:14.514Z,36.76
2018-08-03T11:49:14.503Z,36.59
2018-08-03T11:50:14.470Z,36.51
2018-08-03T11:51:14.456Z,36.28
2018-08-03T11:52:14.435Z,36.44
2018-08-03T11:53:14.416Z,36.32
2018-08-03T11:54:14.426Z,36.20
2018-08-03T11:55:14.378Z,36.15
2018-08-03T11:56:14.357Z,36.37
2018-08-03T11:57:14.347Z,36.50
2018-08-03T11:58:14.323Z,36.56
2018-08-03T11:59:14.320Z,36.59
2018-08-03T12:00:14.281Z,36.81
2018-08-03T12:01:14.260Z,36.78
2018-08-03T12:02:14.245Z,36.84
2018-08-03T12:03:14.238Z,36.71
2018-08-03T12:04:14.235Z,36.78
2018-08-03T12:05:14.196Z,36.37
2018-08-03T12:06:14.204Z,36.07
2018-08-03T12:07:14.148Z,36.09
2018-08-03T12:08:14.128Z,36.20
2018-08-03T12:09:14.170Z,36.31
2018-08-03T12:10:14.095Z,36.28
2018-08-03T12:11:14.080Z,36.28
2018-08-03T12:12:14.057Z,36.25
2018-08-03T12:13:14.038Z,36.25
2018-08-03T12:14:14.016Z,36.35
2018-08-03T12:15:14.029Z,36.54
2018-08-03T12:16:13.982Z,36.75
2018-08-03T12:17:13.974Z,36.94
2018-08-03T12:18:13.947Z,37.07
2018-08-03T12:19:13.918Z,37.10
2018-08-03T12:20:13.928Z,36.85
2018-08-03T12:21:13.885Z,36.76
2018-08-03T12:22:13.865Z,36.64
2018-08-03T12:23:13.853Z,36.53
2018-08-03T12:24:13.834Z,36.43
2018-08-03T12:25:13.837Z,36.44
2018-08-03T12:26:13.793Z,36.37
2018-08-03T12:27:13.772Z,36.44
2018-08-03T12:28:13.759Z,36.37
2018-08-03T12:29:13.736Z,36.44
2018-08-03T12:30:13.759Z,36.39
2018-08-03T12:31:13.706Z,36.60
2018-08-03T12:32:13.673Z,36.32
2018-08-03T12:33:13.656Z,36.05
2018-08-03T12:34:13.640Z,36.19
2018-08-03T12:35:13.623Z,36.31
2018-08-03T12:36:13.622Z,36.23
2018-08-03T12:37:13.650Z,36.32
2018-08-03T12:38:13.591Z,36.39
2018-08-03T12:39:13.540Z,36.32
2018-08-03T12:40:13.520Z,36.15
2018-08-03T12:41:13.523Z,36.28
2018-08-03T12:42:13.483Z,36.22
2018-08-03T12:43:13.513Z,36.27
2018-08-03T12:44:13.448Z,36.35
2018-08-03T12:45:13.423Z,36.39
2018-08-03T12:46:13.424Z,36.47
2018-08-03T12:47:13.398Z,36.39
2018-08-03T12:48:13.372Z,36.50
2018-08-03T12:49:13.354Z,36.54
2018-08-03T12:50:13.340Z,36.72
2018-08-03T12:51:13.343Z,36.85
2018-08-03T12:52:13.290Z,36.71